sensor_id;sensor_type;location;lat;lon;timestamp;temperature;humidity
16728;DHT22;8482;54.396;18.590;2023-06-22T00:00:55;21.60;99.90
16728;DHT22;8482;54.396;18.590;2023-06-22T00:03:25;21.60;99.90
16728;DHT22;8482;54.396;18.590;2023-06-22T00:06:35;21.60;99.90
16728;DHT22;8482;54.396;18.590;2023-06-22T00:09:25;21.60;99.90
16728;DHT22;8482;54.396;18.590;2023-06-22T00:11:56;21.50;99.90
16728;DHT22;8482;54.396;18.590;2023-06-22T00:14:22;21.50;99.90
16728;DHT22;8482;54.396;18.590;2023-06-22T00:16:48;21.50;99.90
16728;DHT22;8482;54.396;18.590;2023-06-22T00:19:17;21.40;99.90
16728;DHT22;8482;54.396;18.590;2023-06-22T00:21:45;21.40;99.90
16728;DHT22;8482;54.396;18.590;2023-06-22T00:24:28;21.40;99.90
16728;DHT22;8482;54.396;18.590;2023-06-22T00:26:59;21.30;99.90
16728;DHT22;8482;54.396;18.590;2023-06-22T00:29:35;21.30;99.90
16728;DHT22;8482;54.396;18.590;2023-06-22T00:32:13;21.30;99.90
16728;DHT22;8482;54.396;18.590;2023-06-22T00:34:39;21.30;99.90
16728;DHT22;8482;54.396;18.590;2023-06-22T00:37:13;21.30;99.90
16728;DHT22;8482;54.396;18.590;2023-06-22T00:39:47;21.30;99.90
16728;DHT22;8482;54.396;18.590;2023-06-22T00:42:15;21.30;99.90
16728;DHT22;8482;54.396;18.590;2023-06-22T00:44:54;21.20;99.90
16728;DHT22;8482;54.396;18.590;2023-06-22T00:47:22;21.20;99.90
16728;DHT22;8482;54.396;18.590;2023-06-22T00:49:55;21.20;99.90
16728;DHT22;8482;54.396;18.590;2023-06-22T00:53:07;21.10;99.90
16728;DHT22;8482;54.396;18.590;2023-06-22T00:55:42;21.10;99.90
16728;DHT22;8482;54.396;18.590;2023-06-22T00:58:17;21.00;99.90
16728;DHT22;8482;54.396;18.590;2023-06-22T01:01:02;21.00;99.90
16728;DHT22;8482;54.396;18.590;2023-06-22T01:07:01;20.80;99.90
16728;DHT22;8482;54.396;18.590;2023-06-22T01:19:49;20.70;99.90
16728;DHT22;8482;54.396;18.590;2023-06-22T01:22:31;20.60;99.90
16728;DHT22;8482;54.396;18.590;2023-06-22T01:25:22;20.60;99.90
16728;DHT22;8482;54.396;18.590;2023-06-22T01:28:30;20.60;99.90
16728;DHT22;8482;54.396;18.590;2023-06-22T01:31:09;20.60;99.90
16728;DHT22;8482;54.396;18.590;2023-06-22T01:34:03;20.50;99.90
16728;DHT22;8482;54.396;18.590;2023-06-22T01:36:38;20.50;99.90
16728;DHT22;8482;54.396;18.590;2023-06-22T01:39:25;20.40;99.90
16728;DHT22;8482;54.396;18.590;2023-06-22T01:42:06;20.40;99.90
16728;DHT22;8482;54.396;18.590;2023-06-22T01:44:38;20.40;99.90
16728;DHT22;8482;54.396;18.590;2023-06-22T01:47:22;20.40;99.90
16728;DHT22;8482;54.396;18.590;2023-06-22T01:50:04;20.40;99.90
16728;DHT22;8482;54.396;18.590;2023-06-22T01:52:41;20.40;99.90
16728;DHT22;8482;54.396;18.590;2023-06-22T01:55:13;20.30;99.90
16728;DHT22;8482;54.396;18.590;2023-06-22T01:57:49;20.30;99.90
16728;DHT22;8482;54.396;18.590;2023-06-22T02:00:29;20.20;99.90
16728;DHT22;8482;54.396;18.590;2023-06-22T02:03:12;20.20;99.90
16728;DHT22;8482;54.396;18.590;2023-06-22T02:05:52;20.20;99.90
16728;DHT22;8482;54.396;18.590;2023-06-22T02:08:40;20.10;99.90
16728;DHT22;8482;54.396;18.590;2023-06-22T02:11:22;20.10;99.90
16728;DHT22;8482;54.396;18.590;2023-06-22T02:14:29;20.10;99.90
16728;DHT22;8482;54.396;18.590;2023-06-22T02:17:07;20.10;99.90
16728;DHT22;8482;54.396;18.590;2023-06-22T02:20:04;20.10;99.90
16728;DHT22;8482;54.396;18.590;2023-06-22T02:22:33;20.00;99.90
16728;DHT22;8482;54.396;18.590;2023-06-22T02:25:09;20.00;99.90
16728;DHT22;8482;54.396;18.590;2023-06-22T02:27:46;20.00;99.90
16728;DHT22;8482;54.396;18.590;2023-06-22T02:30:31;20.00;99.90
16728;DHT22;8482;54.396;18.590;2023-06-22T02:33:06;19.90;99.90
16728;DHT22;8482;54.396;18.590;2023-06-22T02:35:32;19.90;99.90
16728;DHT22;8482;54.396;18.590;2023-06-22T02:38:04;19.90;99.90
16728;DHT22;8482;54.396;18.590;2023-06-22T02:40:46;19.90;99.90
16728;DHT22;8482;54.396;18.590;2023-06-22T02:43:13;19.90;99.90
16728;DHT22;8482;54.396;18.590;2023-06-22T02:46:06;19.90;99.90
16728;DHT22;8482;54.396;18.590;2023-06-22T02:48:49;19.90;99.90
16728;DHT22;8482;54.396;18.590;2023-06-22T02:51:18;19.80;99.90
16728;DHT22;8482;54.396;18.590;2023-06-22T02:53:51;19.80;99.90
16728;DHT22;8482;54.396;18.590;2023-06-22T02:56:42;19.80;99.90
16728;DHT22;8482;54.396;18.590;2023-06-22T02:59:29;19.80;99.90
16728;DHT22;8482;54.396;18.590;2023-06-22T03:02:05;19.80;99.90
16728;DHT22;8482;54.396;18.590;2023-06-22T03:04:52;19.80;99.90
16728;DHT22;8482;54.396;18.590;2023-06-22T03:07:23;19.80;99.90
16728;DHT22;8482;54.396;18.590;2023-06-22T03:09:56;19.80;99.90
16728;DHT22;8482;54.396;18.590;2023-06-22T03:12:52;19.80;99.90
16728;DHT22;8482;54.396;18.590;2023-06-22T03:15:33;19.80;99.90
16728;DHT22;8482;54.396;18.590;2023-06-22T03:21:19;19.80;99.90
16728;DHT22;8482;54.396;18.590;2023-06-22T03:23:53;19.90;99.90
16728;DHT22;8482;54.396;18.590;2023-06-22T03:26:51;19.90;99.90
16728;DHT22;8482;54.396;18.590;2023-06-22T03:29:26;19.90;99.90
16728;DHT22;8482;54.396;18.590;2023-06-22T03:31:58;19.90;99.90
16728;DHT22;8482;54.396;18.590;2023-06-22T03:34:48;19.90;99.90
16728;DHT22;8482;54.396;18.590;2023-06-22T03:37:50;20.00;99.90
16728;DHT22;8482;54.396;18.590;2023-06-22T03:40:18;20.00;99.90
16728;DHT22;8482;54.396;18.590;2023-06-22T03:42:50;20.00;99.90
16728;DHT22;8482;54.396;18.590;2023-06-22T03:45:21;20.00;99.90
16728;DHT22;8482;54.396;18.590;2023-06-22T03:48:00;20.10;99.90
16728;DHT22;8482;54.396;18.590;2023-06-22T03:50:46;20.10;99.90
16728;DHT22;8482;54.396;18.590;2023-06-22T03:53:12;20.10;99.90
16728;DHT22;8482;54.396;18.590;2023-06-22T03:55:59;20.10;99.90
16728;DHT22;8482;54.396;18.590;2023-06-22T03:58:36;20.20;99.90
16728;DHT22;8482;54.396;18.590;2023-06-22T04:01:30;20.20;99.90
16728;DHT22;8482;54.396;18.590;2023-06-22T04:07:05;20.30;99.90
16728;DHT22;8482;54.396;18.590;2023-06-22T04:09:53;20.30;99.90
16728;DHT22;8482;54.396;18.590;2023-06-22T04:12:19;20.30;99.90
16728;DHT22;8482;54.396;18.590;2023-06-22T04:14:45;20.30;99.90
16728;DHT22;8482;54.396;18.590;2023-06-22T04:17:11;20.40;99.90
16728;DHT22;8482;54.396;18.590;2023-06-22T04:19:56;20.40;99.90
16728;DHT22;8482;54.396;18.590;2023-06-22T04:22:22;20.40;99.90
16728;DHT22;8482;54.396;18.590;2023-06-22T04:24:48;20.40;99.90
16728;DHT22;8482;54.396;18.590;2023-06-22T04:27:15;20.50;99.90
16728;DHT22;8482;54.396;18.590;2023-06-22T04:29:41;20.50;99.90
16728;DHT22;8482;54.396;18.590;2023-06-22T04:32:15;20.50;99.90
16728;DHT22;8482;54.396;18.590;2023-06-22T04:34:42;20.50;99.90
16728;DHT22;8482;54.396;18.590;2023-06-22T04:37:08;20.60;99.90
16728;DHT22;8482;54.396;18.590;2023-06-22T04:39:34;20.60;99.90
16728;DHT22;8482;54.396;18.590;2023-06-22T04:42:01;20.70;99.90
16728;DHT22;8482;54.396;18.590;2023-06-22T04:44:27;20.70;99.90
16728;DHT22;8482;54.396;18.590;2023-06-22T04:46:57;20.70;99.90
16728;DHT22;8482;54.396;18.590;2023-06-22T04:49:30;20.70;99.90
16728;DHT22;8482;54.396;18.590;2023-06-22T04:52:02;20.80;99.90
16728;DHT22;8482;54.396;18.590;2023-06-22T04:54:30;20.80;99.90
16728;DHT22;8482;54.396;18.590;2023-06-22T04:57:02;20.80;99.90
16728;DHT22;8482;54.396;18.590;2023-06-22T04:59:31;20.80;99.90
16728;DHT22;8482;54.396;18.590;2023-06-22T05:01:59;20.90;99.90
16728;DHT22;8482;54.396;18.590;2023-06-22T05:04:27;20.90;99.90
16728;DHT22;8482;54.396;18.590;2023-06-22T05:06:57;20.90;99.90
16728;DHT22;8482;54.396;18.590;2023-06-22T05:09:24;20.90;99.90
16728;DHT22;8482;54.396;18.590;2023-06-22T05:11:51;20.90;99.90
16728;DHT22;8482;54.396;18.590;2023-06-22T05:14:38;21.00;99.90
16728;DHT22;8482;54.396;18.590;2023-06-22T05:17:40;21.00;99.90
16728;DHT22;8482;54.396;18.590;2023-06-22T05:20:11;21.10;99.90
16728;DHT22;8482;54.396;18.590;2023-06-22T05:22:40;21.10;99.90
16728;DHT22;8482;54.396;18.590;2023-06-22T05:25:09;21.10;99.90
16728;DHT22;8482;54.396;18.590;2023-06-22T05:27:37;21.20;99.90
16728;DHT22;8482;54.396;18.590;2023-06-22T05:30:17;21.20;99.90
16728;DHT22;8482;54.396;18.590;2023-06-22T05:32:51;21.20;99.90
16728;DHT22;8482;54.396;18.590;2023-06-22T05:35:20;21.30;99.90
16728;DHT22;8482;54.396;18.590;2023-06-22T05:37:46;21.30;99.90
16728;DHT22;8482;54.396;18.590;2023-06-22T05:40:14;21.30;99.90
16728;DHT22;8482;54.396;18.590;2023-06-22T05:42:42;21.20;99.90
16728;DHT22;8482;54.396;18.590;2023-06-22T05:45:14;21.20;99.90
16728;DHT22;8482;54.396;18.590;2023-06-22T05:47:43;21.20;99.90
16728;DHT22;8482;54.396;18.590;2023-06-22T05:50:14;21.20;99.90
16728;DHT22;8482;54.396;18.590;2023-06-22T05:53:01;21.20;99.90
16728;DHT22;8482;54.396;18.590;2023-06-22T05:55:32;21.20;99.90
16728;DHT22;8482;54.396;18.590;2023-06-22T05:58:00;21.20;99.90
16728;DHT22;8482;54.396;18.590;2023-06-22T06:00:36;21.30;99.90
16728;DHT22;8482;54.396;18.590;2023-06-22T06:03:06;21.30;99.90
16728;DHT22;8482;54.396;18.590;2023-06-22T06:05:40;21.30;99.90
16728;DHT22;8482;54.396;18.590;2023-06-22T06:08:06;21.30;99.90
16728;DHT22;8482;54.396;18.590;2023-06-22T06:10:33;21.30;99.90
16728;DHT22;8482;54.396;18.590;2023-06-22T06:13:02;21.30;99.90
16728;DHT22;8482;54.396;18.590;2023-06-22T06:15:39;21.30;99.90
16728;DHT22;8482;54.396;18.590;2023-06-22T06:18:08;21.30;99.90
16728;DHT22;8482;54.396;18.590;2023-06-22T06:20:37;21.30;99.90
16728;DHT22;8482;54.396;18.590;2023-06-22T06:23:03;21.30;99.90
16728;DHT22;8482;54.396;18.590;2023-06-22T06:25:29;21.30;99.90
16728;DHT22;8482;54.396;18.590;2023-06-22T06:27:57;21.30;99.90
16728;DHT22;8482;54.396;18.590;2023-06-22T06:30:34;21.30;99.90
16728;DHT22;8482;54.396;18.590;2023-06-22T06:33:32;21.40;99.90
16728;DHT22;8482;54.396;18.590;2023-06-22T06:35:58;21.40;99.90
16728;DHT22;8482;54.396;18.590;2023-06-22T06:38:27;21.40;99.90
16728;DHT22;8482;54.396;18.590;2023-06-22T06:40:55;21.50;99.90
16728;DHT22;8482;54.396;18.590;2023-06-22T06:43:24;21.40;99.90
16728;DHT22;8482;54.396;18.590;2023-06-22T06:45:51;21.40;99.90
16728;DHT22;8482;54.396;18.590;2023-06-22T06:48:16;21.40;99.90
16728;DHT22;8482;54.396;18.590;2023-06-22T06:50:43;21.50;99.90
16728;DHT22;8482;54.396;18.590;2023-06-22T06:53:09;21.50;99.90
16728;DHT22;8482;54.396;18.590;2023-06-22T06:55:35;21.60;99.90
16728;DHT22;8482;54.396;18.590;2023-06-22T06:58:04;21.60;99.90
16728;DHT22;8482;54.396;18.590;2023-06-22T07:00:33;21.60;99.90
16728;DHT22;8482;54.396;18.590;2023-06-22T07:03:09;21.60;99.90
16728;DHT22;8482;54.396;18.590;2023-06-22T07:08:47;21.70;99.90
16728;DHT22;8482;54.396;18.590;2023-06-22T07:11:13;21.70;99.90
16728;DHT22;8482;54.396;18.590;2023-06-22T07:13:38;21.70;99.90
16728;DHT22;8482;54.396;18.590;2023-06-22T07:16:04;21.80;99.90
16728;DHT22;8482;54.396;18.590;2023-06-22T07:18:31;21.90;99.90
16728;DHT22;8482;54.396;18.590;2023-06-22T07:20:59;21.90;99.90
16728;DHT22;8482;54.396;18.590;2023-06-22T07:23:30;22.00;99.90
16728;DHT22;8482;54.396;18.590;2023-06-22T07:26:01;22.00;99.90
16728;DHT22;8482;54.396;18.590;2023-06-22T07:28:27;22.10;99.90
16728;DHT22;8482;54.396;18.590;2023-06-22T07:30:57;22.10;99.90
16728;DHT22;8482;54.396;18.590;2023-06-22T07:33:23;22.10;99.90
16728;DHT22;8482;54.396;18.590;2023-06-22T07:35:48;22.10;99.90
16728;DHT22;8482;54.396;18.590;2023-06-22T07:38:16;22.20;99.90
16728;DHT22;8482;54.396;18.590;2023-06-22T07:40:42;22.20;99.90
16728;DHT22;8482;54.396;18.590;2023-06-22T07:43:09;22.30;99.90
16728;DHT22;8482;54.396;18.590;2023-06-22T07:45:34;22.30;99.90
16728;DHT22;8482;54.396;18.590;2023-06-22T07:48:01;22.40;99.90
16728;DHT22;8482;54.396;18.590;2023-06-22T07:50:37;22.50;99.90
16728;DHT22;8482;54.396;18.590;2023-06-22T07:53:03;22.50;99.90
16728;DHT22;8482;54.396;18.590;2023-06-22T07:55:28;22.60;99.90
16728;DHT22;8482;54.396;18.590;2023-06-22T07:57:54;22.60;99.90
16728;DHT22;8482;54.396;18.590;2023-06-22T08:00:20;22.80;99.80
16728;DHT22;8482;54.396;18.590;2023-06-22T08:02:49;22.90;99.80
16728;DHT22;8482;54.396;18.590;2023-06-22T08:05:16;22.90;99.70
16728;DHT22;8482;54.396;18.590;2023-06-22T08:07:43;23.00;99.60
16728;DHT22;8482;54.396;18.590;2023-06-22T08:10:12;23.10;99.60
16728;DHT22;8482;54.396;18.590;2023-06-22T08:12:41;23.20;99.20
16728;DHT22;8482;54.396;18.590;2023-06-22T08:15:08;23.30;98.50
16728;DHT22;8482;54.396;18.590;2023-06-22T08:17:36;23.30;98.60
16728;DHT22;8482;54.396;18.590;2023-06-22T08:20:04;23.40;98.70
16728;DHT22;8482;54.396;18.590;2023-06-22T08:22:40;23.40;98.50
16728;DHT22;8482;54.396;18.590;2023-06-22T18:52:33;24.40;89.90
16728;DHT22;8482;54.396;18.590;2023-06-22T18:55:04;24.30;90.40
16728;DHT22;8482;54.396;18.590;2023-06-22T18:57:36;24.20;90.80
16728;DHT22;8482;54.396;18.590;2023-06-22T19:00:07;24.10;91.40
16728;DHT22;8482;54.396;18.590;2023-06-22T19:05:39;23.90;92.70
16728;DHT22;8482;54.396;18.590;2023-06-22T19:08:07;23.80;93.30
16728;DHT22;8482;54.396;18.590;2023-06-22T19:10:41;23.60;93.80
16728;DHT22;8482;54.396;18.590;2023-06-22T19:13:18;23.50;94.50
16728;DHT22;8482;54.396;18.590;2023-06-22T19:15:57;23.50;95.10
16728;DHT22;8482;54.396;18.590;2023-06-22T19:18:34;23.30;95.60
16728;DHT22;8482;54.396;18.590;2023-06-22T19:23:41;23.20;96.70
16728;DHT22;8482;54.396;18.590;2023-06-22T19:26:16;23.10;97.50
16728;DHT22;8482;54.396;18.590;2023-06-22T19:28:47;23.00;97.70
16728;DHT22;8482;54.396;18.590;2023-06-22T19:31:18;22.90;98.10
16728;DHT22;8482;54.396;18.590;2023-06-22T19:33:50;22.80;98.50
16728;DHT22;8482;54.396;18.590;2023-06-22T19:36:30;22.80;98.90
16728;DHT22;8482;54.396;18.590;2023-06-22T19:39:01;22.70;99.40
16728;DHT22;8482;54.396;18.590;2023-06-22T19:41:29;22.70;99.70
16728;DHT22;8482;54.396;18.590;2023-06-22T19:43:55;22.60;99.90
16728;DHT22;8482;54.396;18.590;2023-06-22T19:46:29;22.60;99.90
16728;DHT22;8482;54.396;18.590;2023-06-22T19:48:57;22.50;99.90
16728;DHT22;8482;54.396;18.590;2023-06-22T19:51:33;22.50;99.90
16728;DHT22;8482;54.396;18.590;2023-06-22T19:54:07;22.40;99.90
16728;DHT22;8482;54.396;18.590;2023-06-22T19:56:35;22.30;99.90
16728;DHT22;8482;54.396;18.590;2023-06-22T19:59:12;22.20;99.90
16728;DHT22;8482;54.396;18.590;2023-06-22T20:01:41;22.20;99.90
16728;DHT22;8482;54.396;18.590;2023-06-22T20:04:09;22.10;99.90
16728;DHT22;8482;54.396;18.590;2023-06-22T20:06:35;22.00;99.90
16728;DHT22;8482;54.396;18.590;2023-06-22T20:09:02;22.00;99.90
16728;DHT22;8482;54.396;18.590;2023-06-22T20:11:33;21.90;99.90
16728;DHT22;8482;54.396;18.590;2023-06-22T20:14:02;21.90;99.90
16728;DHT22;8482;54.396;18.590;2023-06-22T20:16:29;21.90;99.90
16728;DHT22;8482;54.396;18.590;2023-06-22T20:19:12;21.80;99.90
16728;DHT22;8482;54.396;18.590;2023-06-22T20:21:40;21.80;99.90
16728;DHT22;8482;54.396;18.590;2023-06-22T20:24:09;21.80;99.90
16728;DHT22;8482;54.396;18.590;2023-06-22T20:26:41;21.70;99.90
16728;DHT22;8482;54.396;18.590;2023-06-22T20:34:45;21.60;99.90
16728;DHT22;8482;54.396;18.590;2023-06-22T20:37:14;21.50;99.90
16728;DHT22;8482;54.396;18.590;2023-06-22T20:39:41;21.50;99.90
16728;DHT22;8482;54.396;18.590;2023-06-22T20:42:09;21.40;99.90
16728;DHT22;8482;54.396;18.590;2023-06-22T20:44:37;21.40;99.90
16728;DHT22;8482;54.396;18.590;2023-06-22T20:47:04;21.40;99.90
16728;DHT22;8482;54.396;18.590;2023-06-22T20:49:30;21.30;99.90
16728;DHT22;8482;54.396;18.590;2023-06-22T20:51:56;21.30;99.90
16728;DHT22;8482;54.396;18.590;2023-06-22T20:54:22;21.20;99.90
16728;DHT22;8482;54.396;18.590;2023-06-22T20:56:49;21.20;99.90
16728;DHT22;8482;54.396;18.590;2023-06-22T20:59:15;21.10;99.90
16728;DHT22;8482;54.396;18.590;2023-06-22T21:01:41;21.10;99.90
16728;DHT22;8482;54.396;18.590;2023-06-22T21:04:12;21.00;99.90
16728;DHT22;8482;54.396;18.590;2023-06-22T21:06:38;21.00;99.90
16728;DHT22;8482;54.396;18.590;2023-06-22T21:09:04;21.00;99.90
16728;DHT22;8482;54.396;18.590;2023-06-22T21:11:30;21.00;99.90
16728;DHT22;8482;54.396;18.590;2023-06-22T21:13:56;20.90;99.90
16728;DHT22;8482;54.396;18.590;2023-06-22T21:16:22;20.90;99.90
16728;DHT22;8482;54.396;18.590;2023-06-22T21:18:47;20.90;99.90
16728;DHT22;8482;54.396;18.590;2023-06-22T21:21:13;20.80;99.90
16728;DHT22;8482;54.396;18.590;2023-06-22T21:23:39;20.70;99.90
16728;DHT22;8482;54.396;18.590;2023-06-22T21:26:05;20.70;99.90
16728;DHT22;8482;54.396;18.590;2023-06-22T21:28:31;20.60;99.90
16728;DHT22;8482;54.396;18.590;2023-06-22T21:30:57;20.60;99.90
16728;DHT22;8482;54.396;18.590;2023-06-22T21:33:23;20.50;99.90
16728;DHT22;8482;54.396;18.590;2023-06-22T21:35:49;20.50;99.90
16728;DHT22;8482;54.396;18.590;2023-06-22T21:38:15;20.50;99.90
16728;DHT22;8482;54.396;18.590;2023-06-22T21:40:41;20.50;99.90
16728;DHT22;8482;54.396;18.590;2023-06-22T21:43:07;20.50;99.90
16728;DHT22;8482;54.396;18.590;2023-06-22T21:45:33;20.40;99.90
16728;DHT22;8482;54.396;18.590;2023-06-22T21:47:59;20.40;99.90
16728;DHT22;8482;54.396;18.590;2023-06-22T21:50:25;20.40;99.90
16728;DHT22;8482;54.396;18.590;2023-06-22T21:52:51;20.40;99.90
16728;DHT22;8482;54.396;18.590;2023-06-22T21:55:16;20.30;99.90
16728;DHT22;8482;54.396;18.590;2023-06-22T21:57:42;20.30;99.90
16728;DHT22;8482;54.396;18.590;2023-06-22T22:00:08;20.20;99.90
16728;DHT22;8482;54.396;18.590;2023-06-22T22:02:37;20.20;99.90
16728;DHT22;8482;54.396;18.590;2023-06-22T22:05:03;20.20;99.90
16728;DHT22;8482;54.396;18.590;2023-06-22T22:07:30;20.10;99.90
16728;DHT22;8482;54.396;18.590;2023-06-22T22:09:58;20.10;99.90
16728;DHT22;8482;54.396;18.590;2023-06-22T22:12:24;20.10;99.90
16728;DHT22;8482;54.396;18.590;2023-06-22T22:14:50;20.00;99.90
16728;DHT22;8482;54.396;18.590;2023-06-22T22:17:16;20.00;99.90
16728;DHT22;8482;54.396;18.590;2023-06-22T22:19:42;20.00;99.90
16728;DHT22;8482;54.396;18.590;2023-06-22T22:22:08;20.00;99.90
16728;DHT22;8482;54.396;18.590;2023-06-22T22:24:34;19.90;99.90
16728;DHT22;8482;54.396;18.590;2023-06-22T22:26:59;19.90;99.90
16728;DHT22;8482;54.396;18.590;2023-06-22T22:29:26;19.90;99.90
16728;DHT22;8482;54.396;18.590;2023-06-22T22:31:55;19.80;99.90
16728;DHT22;8482;54.396;18.590;2023-06-22T22:34:21;19.80;99.90
16728;DHT22;8482;54.396;18.590;2023-06-22T22:36:47;19.70;99.90
16728;DHT22;8482;54.396;18.590;2023-06-22T22:39:29;19.70;99.90
16728;DHT22;8482;54.396;18.590;2023-06-22T22:42:05;19.70;99.90
16728;DHT22;8482;54.396;18.590;2023-06-22T22:44:32;19.70;99.90
16728;DHT22;8482;54.396;18.590;2023-06-22T22:46:58;19.60;99.90
16728;DHT22;8482;54.396;18.590;2023-06-22T22:49:24;19.60;99.90
16728;DHT22;8482;54.396;18.590;2023-06-22T22:51:50;19.60;99.90
16728;DHT22;8482;54.396;18.590;2023-06-22T22:54:16;19.50;99.90
16728;DHT22;8482;54.396;18.590;2023-06-22T22:56:46;19.50;99.90
16728;DHT22;8482;54.396;18.590;2023-06-22T22:59:12;19.50;99.90
16728;DHT22;8482;54.396;18.590;2023-06-22T23:01:38;19.50;99.90
16728;DHT22;8482;54.396;18.590;2023-06-22T23:04:05;19.50;99.90
16728;DHT22;8482;54.396;18.590;2023-06-22T23:06:31;19.50;99.90
16728;DHT22;8482;54.396;18.590;2023-06-22T23:08:57;19.50;99.90
16728;DHT22;8482;54.396;18.590;2023-06-22T23:11:25;19.50;99.90
16728;DHT22;8482;54.396;18.590;2023-06-22T23:13:53;19.50;99.90
16728;DHT22;8482;54.396;18.590;2023-06-22T23:16:28;19.40;99.90
16728;DHT22;8482;54.396;18.590;2023-06-22T23:18:55;19.40;99.90
16728;DHT22;8482;54.396;18.590;2023-06-22T23:21:21;19.40;99.90
16728;DHT22;8482;54.396;18.590;2023-06-22T23:23:47;19.40;99.90
16728;DHT22;8482;54.396;18.590;2023-06-22T23:26:13;19.40;99.90
16728;DHT22;8482;54.396;18.590;2023-06-22T23:28:42;19.30;99.90
16728;DHT22;8482;54.396;18.590;2023-06-22T23:31:08;19.30;99.90
16728;DHT22;8482;54.396;18.590;2023-06-22T23:33:34;19.30;99.90
16728;DHT22;8482;54.396;18.590;2023-06-22T23:36:03;19.30;99.90
16728;DHT22;8482;54.396;18.590;2023-06-22T23:38:30;19.30;99.90
16728;DHT22;8482;54.396;18.590;2023-06-22T23:40:57;19.20;99.90
16728;DHT22;8482;54.396;18.590;2023-06-22T23:43:23;19.20;99.90
16728;DHT22;8482;54.396;18.590;2023-06-22T23:45:50;19.10;99.90
16728;DHT22;8482;54.396;18.590;2023-06-22T23:48:16;19.10;99.90
16728;DHT22;8482;54.396;18.590;2023-06-22T23:50:42;19.10;99.90
16728;DHT22;8482;54.396;18.590;2023-06-22T23:53:08;19.00;99.90
16728;DHT22;8482;54.396;18.590;2023-06-22T23:55:38;19.00;99.90
16728;DHT22;8482;54.396;18.590;2023-06-22T23:58:04;19.00;99.90
